Time;durP1;ratioP1;P1;durP2;ratioP2;P2;SDS_P1;SDS_P2;PMS_P1;PMS_P2;Temp;Humidity;BMP_temperature;BMP_pressure;BME280_temperature;BME280_humidity;BME280_pressure;Samples;Min_cycle;Max_cycle;Signal;HPM_P1;HPM_P2
2022/10/04 00:00:24;;;;;;;548.60;299.55;;;;;;;;;;5092227;28;20177;-75
2022/10/04 00:02:51;;;;;;;543.33;292.98;;;;;;;;;;5092376;28;20024;-75
2022/10/04 00:05:18;;;;;;;545.75;295.05;;;;;;;;;;5092972;28;20044;-75
2022/10/04 00:07:46;;;;;;;542.50;293.65;;;;;;;;;;5094046;28;20027;-75
2022/10/04 00:10:22;;;;;;;545.85;293.27;;;;;;;;;;5093506;28;20024;-75
2022/10/04 00:12:50;;;;;;;544.88;288.90;;;;;;;;;;5093125;28;20141;-75
2022/10/04 00:15:21;;;;;;;544.83;290.67;;;;;;;;;;5093433;28;20103;-75
2022/10/04 00:18:05;;;;;;;541.97;288.50;;;;;;;;;;5093479;28;20103;-75
2022/10/04 00:20:51;;;;;;;551.83;297.92;;;;;;;;;;5093322;28;20032;-75
2022/10/04 00:23:24;;;;;;;545.17;290.60;;;;;;;;;;5093356;28;20016;-75
2022/10/04 00:25:51;;;;;;;541.60;288.92;;;;;;;;;;5091692;28;20028;-75
2022/10/04 00:28:28;;;;;;;543.67;293.85;;;;;;;;;;5093373;28;20024;-75
2022/10/04 00:31:09;;;;;;;539.88;291.63;;;;;;;;;;5093423;28;20073;-76
2022/10/04 00:33:37;;;;;;;537.80;290.30;;;;;;;;;;5091564;28;20071;-76
2022/10/04 00:36:25;;;;;;;536.47;290.27;;;;;;;;;;5093219;28;20027;-75
2022/10/04 00:39:00;;;;;;;524.83;279.73;;;;;;;;;;5093356;28;20054;-75
2022/10/04 00:41:28;;;;;;;543.58;294.13;;;;;;;;;;5093659;28;20031;-75
2022/10/04 00:43:55;;;;;;;540.08;298.00;;;;;;;;;;5093064;28;20126;-75
2022/10/04 00:46:23;;;;;;;534.08;292.63;;;;;;;;;;5091585;28;20028;-75
2022/10/04 00:48:49;;;;;;;528.20;284.65;;;;;;;;;;5093265;28;20190;-75
2022/10/04 00:51:18;;;;;;;534.45;291.48;;;;;;;;;;5094907;28;20560;-75
2022/10/04 00:53:57;;;;;;;537.13;292.17;;;;;;;;;;5096669;28;20066;-75
2022/10/04 00:56:50;;;;;;;535.70;290.33;;;;;;;;;;5096947;28;20142;-75
2022/10/04 00:59:35;;;;;;;534.55;288.65;;;;;;;;;;5094133;28;20028;-75
2022/10/04 01:02:03;;;;;;;531.63;288.95;;;;;;;;;;5096413;28;20070;-75
2022/10/04 01:04:45;;;;;;;527.70;291.83;;;;;;;;;;5096491;28;20040;-75
2022/10/04 01:07:13;;;;;;;529.95;290.02;;;;;;;;;;5096313;28;20024;-75
2022/10/04 01:09:46;;;;;;;532.25;289.15;;;;;;;;;;5096767;28;20047;-75
2022/10/04 01:12:33;;;;;;;533.25;291.17;;;;;;;;;;5096571;28;20028;-75
2022/10/04 01:15:04;;;;;;;534.33;292.17;;;;;;;;;;5096307;28;20032;-75
2022/10/04 01:17:30;;;;;;;539.13;298.00;;;;;;;;;;5095229;28;20059;-75
2022/10/04 01:19:56;;;;;;;534.45;291.17;;;;;;;;;;5096603;28;20105;-75
2022/10/04 01:22:55;;;;;;;537.30;293.88;;;;;;;;;;5096086;28;20028;-75
2022/10/04 01:25:39;;;;;;;538.50;294.17;;;;;;;;;;5062721;28;20506;-75
2022/10/04 01:28:06;;;;;;;535.15;293.83;;;;;;;;;;5095041;28;20035;-75
2022/10/04 01:30:32;;;;;;;524.97;286.92;;;;;;;;;;5094551;28;20366;-75
2022/10/04 01:32:58;;;;;;;529.58;291.95;;;;;;;;;;5096164;28;20090;-76
2022/10/04 01:35:24;;;;;;;522.45;288.73;;;;;;;;;;5095822;28;20101;-76
2022/10/04 01:37:50;;;;;;;526.15;295.55;;;;;;;;;;5096160;28;20055;-75
2022/10/04 01:40:17;;;;;;;528.95;296.58;;;;;;;;;;5096120;28;20480;-75
2022/10/04 01:42:49;;;;;;;528.20;293.90;;;;;;;;;;5095648;28;20035;-75
2022/10/04 01:45:21;;;;;;;525.35;293.88;;;;;;;;;;5095970;28;20032;-75
2022/10/04 01:47:51;;;;;;;518.45;288.58;;;;;;;;;;5095964;28;20028;-75
2022/10/04 01:50:26;;;;;;;523.95;291.80;;;;;;;;;;5095554;28;20023;-75
2022/10/04 01:52:55;;;;;;;526.60;290.60;;;;;;;;;;5096037;28;20055;-75
2022/10/04 01:55:33;;;;;;;528.22;295.60;;;;;;;;;;5095800;28;20047;-75
2022/10/04 01:58:01;;;;;;;525.17;291.73;;;;;;;;;;5095374;28;20020;-75
2022/10/04 02:00:28;;;;;;;535.80;296.38;;;;;;;;;;5095783;28;20055;-75
2022/10/04 02:03:03;;;;;;;535.15;295.00;;;;;;;;;;5095813;28;20368;-76
2022/10/04 02:05:41;;;;;;;528.40;295.27;;;;;;;;;;5095074;28;20062;-75
2022/10/04 02:08:12;;;;;;;528.60;293.33;;;;;;;;;;5095823;28;20020;-76
2022/10/04 02:10:38;;;;;;;527.45;294.33;;;;;;;;;;5095108;28;20108;-75
2022/10/04 02:13:17;;;;;;;525.65;293.60;;;;;;;;;;5095472;28;20024;-75
2022/10/04 02:15:43;;;;;;;524.20;292.77;;;;;;;;;;5095405;28;20016;-75
2022/10/04 02:18:20;;;;;;;518.38;289.50;;;;;;;;;;5094980;28;20094;-75
2022/10/04 02:20:47;;;;;;;525.38;293.92;;;;;;;;;;5095301;28;20051;-75
2022/10/04 02:23:15;;;;;;;527.47;295.25;;;;;;;;;;5094010;28;20032;-75
2022/10/04 02:25:42;;;;;;;518.67;288.05;;;;;;;;;;5094870;28;20487;-76
2022/10/04 02:28:12;;;;;;;523.40;293.13;;;;;;;;;;5093876;28;20119;-76
2022/10/04 02:30:40;;;;;;;524.03;294.55;;;;;;;;;;5095099;28;20388;-75
2022/10/04 02:33:06;;;;;;;511.25;291.80;;;;;;;;;;5094605;28;20027;-76
2022/10/04 02:35:34;;;;;;;505.25;279.60;;;;;;;;;;5095242;28;20027;-76
2022/10/04 02:38:09;;;;;;;514.58;289.73;;;;;;;;;;5095240;28;20028;-76
2022/10/04 02:40:54;;;;;;;517.30;290.85;;;;;;;;;;5094646;28;20098;-75
2022/10/04 02:43:23;;;;;;;520.95;292.45;;;;;;;;;;5094759;28;20380;-75
2022/10/04 02:45:54;;;;;;;516.42;291.15;;;;;;;;;;5094523;28;20097;-76
2022/10/04 02:48:35;;;;;;;514.30;290.10;;;;;;;;;;5095029;28;20050;-75
2022/10/04 02:51:19;;;;;;;511.38;288.95;;;;;;;;;;5094726;28;20100;-75
2022/10/04 02:53:48;;;;;;;504.23;279.08;;;;;;;;;;5094236;28;20016;-75
2022/10/04 02:56:14;;;;;;;499.77;278.75;;;;;;;;;;5094627;28;20024;-75
2022/10/04 02:58:41;;;;;;;511.42;288.13;;;;;;;;;;5094594;28;20476;-75
2022/10/04 03:01:07;;;;;;;494.15;271.52;;;;;;;;;;5094132;28;20035;-75
2022/10/04 03:03:40;;;;;;;490.45;269.25;;;;;;;;;;5094495;28;20462;-76
2022/10/04 03:06:11;;;;;;;499.63;281.25;;;;;;;;;;5094715;28;20031;-76
2022/10/04 03:08:42;;;;;;;482.58;277.45;;;;;;;;;;5094049;28;20024;-76
2022/10/04 03:11:10;;;;;;;479.48;276.85;;;;;;;;;;5093098;28;20024;-76
2022/10/04 03:13:37;;;;;;;489.55;282.67;;;;;;;;;;5093793;28;20058;-76
2022/10/04 03:16:03;;;;;;;483.20;279.40;;;;;;;;;;5093815;28;20020;-76
2022/10/04 03:18:30;;;;;;;482.83;279.67;;;;;;;;;;5094303;28;20038;-76
2022/10/04 03:20:56;;;;;;;491.52;284.25;;;;;;;;;;5093800;28;20157;-76
2022/10/04 03:23:23;;;;;;;490.55;280.35;;;;;;;;;;5094137;28;20051;-75
2022/10/04 03:26:15;;;;;;;497.52;286.13;;;;;;;;;;5094225;28;20039;-76
2022/10/04 03:28:42;;;;;;;494.08;284.48;;;;;;;;;;5070176;28;20043;-76
2022/10/04 03:31:08;;;;;;;491.45;283.33;;;;;;;;;;5094160;28;20381;-76
2022/10/04 03:33:34;;;;;;;492.02;285.58;;;;;;;;;;5094024;28;20100;-76
2022/10/04 03:36:00;;;;;;;492.77;284.55;;;;;;;;;;5093526;28;20028;-76
2022/10/04 03:38:27;;;;;;;497.77;284.02;;;;;;;;;;5092609;28;20028;-76
2022/10/04 03:40:55;;;;;;;491.33;281.65;;;;;;;;;;5093883;28;20483;-76
2022/10/04 03:43:23;;;;;;;490.45;281.95;;;;;;;;;;5093396;28;20491;-76
2022/10/04 03:45:49;;;;;;;490.00;284.02;;;;;;;;;;5093760;28;20122;-76
2022/10/04 03:48:21;;;;;;;491.20;280.75;;;;;;;;;;5093799;28;20047;-76
2022/10/04 03:50:48;;;;;;;487.20;278.48;;;;;;;;;;5092193;28;20024;-76
2022/10/04 03:53:27;;;;;;;501.75;288.63;;;;;;;;;;5093665;28;20070;-76
2022/10/04 03:55:53;;;;;;;494.50;281.70;;;;;;;;;;5093709;28;20028;-76
2022/10/04 03:58:19;;;;;;;485.50;278.77;;;;;;;;;;5091946;28;20038;-76
2022/10/04 04:01:06;;;;;;;474.35;268.92;;;;;;;;;;5093597;28;20468;-76
2022/10/04 04:03:36;;;;;;;489.50;282.05;;;;;;;;;;5092881;28;20515;-75
2022/10/04 04:06:05;;;;;;;492.38;281.30;;;;;;;;;;5093564;28;20107;-76
2022/10/04 04:08:40;;;;;;;491.23;282.45;;;;;;;;;;5093543;28;20069;-77
2022/10/04 04:11:10;;;;;;;490.75;282.35;;;;;;;;;;5093105;28;20043;-76
2022/10/04 04:13:46;;;;;;;492.48;279.58;;;;;;;;;;5093528;28;20422;-76
2022/10/04 04:16:13;;;;;;;495.73;283.05;;;;;;;;;;5093736;28;20016;-76
2022/10/04 04:18:42;;;;;;;491.00;280.13;;;;;;;;;;5093141;28;20016;-75
2022/10/04 04:21:09;;;;;;;490.83;282.80;;;;;;;;;;5093443;28;20024;-76
2022/10/04 04:23:37;;;;;;;480.45;274.73;;;;;;;;;;5092015;28;20383;-75
2022/10/04 04:26:18;;;;;;;479.33;272.83;;;;;;;;;;5094644;28;20106;-75
2022/10/04 04:28:48;;;;;;;487.85;280.48;;;;;;;;;;5094816;28;20024;-75
2022/10/04 04:31:25;;;;;;;487.25;280.27;;;;;;;;;;5097026;28;20012;-77
2022/10/04 04:33:58;;;;;;;483.63;277.73;;;;;;;;;;5097371;28;20026;-75
2022/10/04 04:36:25;;;;;;;476.63;271.25;;;;;;;;;;5097325;28;20023;-77
2022/10/04 04:41:36;;;;;;;486.00;278.52;;;;;;;;;;5097262;28;20490;-76
2022/10/04 04:44:03;;;;;;;478.25;275.05;;;;;;;;;;5097054;28;20165;-76
2022/10/04 04:46:31;;;;;;;479.50;275.27;;;;;;;;;;5096717;28;20028;-76
2022/10/04 04:49:02;;;;;;;476.30;269.42;;;;;;;;;;5097143;28;20051;-74
2022/10/04 04:51:30;;;;;;;475.35;271.67;;;;;;;;;;5097091;28;20113;-74
2022/10/04 04:53:56;;;;;;;479.35;273.13;;;;;;;;;;5096539;28;20048;-75
2022/10/04 04:56:25;;;;;;;475.10;271.35;;;;;;;;;;5096964;28;20028;-75
2022/10/04 04:58:52;;;;;;;486.50;279.80;;;;;;;;;;5096996;28;20422;-75
2022/10/04 05:01:22;;;;;;;476.10;269.73;;;;;;;;;;5095562;28;20027;-75
2022/10/04 05:04:07;;;;;;;475.02;267.08;;;;;;;;;;5096282;28;20052;-74
2022/10/04 05:06:34;;;;;;;490.27;282.75;;;;;;;;;;5096372;28;20028;-75
2022/10/04 05:09:00;;;;;;;491.48;282.65;;;;;;;;;;5096619;28;20054;-75
2022/10/04 05:11:29;;;;;;;489.58;282.45;;;;;;;;;;5095872;28;20384;-75
2022/10/04 05:13:55;;;;;;;474.15;268.10;;;;;;;;;;5093921;28;20016;-75
2022/10/04 05:16:42;;;;;;;481.60;276.23;;;;;;;;;;5094656;28;20060;-75
2022/10/04 05:19:29;;;;;;;478.98;277.83;;;;;;;;;;5094557;28;20024;-74
2022/10/04 05:21:57;;;;;;;466.98;267.70;;;;;;;;;;5093501;28;20031;-74
2022/10/04 05:24:26;;;;;;;466.08;268.65;;;;;;;;;;5092512;28;20032;-73
2022/10/04 05:26:53;;;;;;;468.08;273.25;;;;;;;;;;5090152;28;20054;-72
2022/10/04 05:29:21;;;;;;;465.60;274.73;;;;;;;;;;5090628;28;20030;-74
2022/10/04 05:31:53;;;;;;;463.88;274.50;;;;;;;;;;5090347;28;20384;-74
2022/10/04 05:34:23;;;;;;;471.50;279.95;;;;;;;;;;5090295;28;20026;-75
2022/10/04 05:36:52;;;;;;;467.83;272.70;;;;;;;;;;5091573;28;20054;-73
2022/10/04 05:39:37;;;;;;;471.33;274.58;;;;;;;;;;5091825;28;20554;-73
2022/10/04 05:42:12;;;;;;;466.15;269.45;;;;;;;;;;5091774;28;20032;-72
2022/10/04 05:44:51;;;;;;;469.38;275.30;;;;;;;;;;5091390;28;20036;-74
2022/10/04 05:47:22;;;;;;;469.08;276.13;;;;;;;;;;5091078;28;20028;-73
2022/10/04 05:49:49;;;;;;;463.20;271.45;;;;;;;;;;5090770;28;20069;-70
2022/10/04 05:52:24;;;;;;;455.38;273.08;;;;;;;;;;5090740;28;20035;-77
2022/10/04 05:55:10;;;;;;;422.42;257.30;;;;;;;;;;5092395;28;20542;-77
2022/10/04 05:57:43;;;;;;;429.05;261.00;;;;;;;;;;5091974;28;20527;-77
2022/10/04 06:00:09;;;;;;;429.85;259.17;;;;;;;;;;5093485;28;20032;-78
2022/10/04 06:02:54;;;;;;;398.52;237.73;;;;;;;;;;5092122;28;20035;-79
2022/10/04 06:05:39;;;;;;;429.55;260.77;;;;;;;;;;5091338;28;20047;-77
2022/10/04 06:08:09;;;;;;;428.13;257.17;;;;;;;;;;5093121;28;20056;-78
2022/10/04 06:10:50;;;;;;;427.63;257.85;;;;;;;;;;5076559;28;20029;-76
2022/10/04 06:13:32;;;;;;;434.45;264.50;;;;;;;;;;5072796;28;20059;-76
2022/10/04 06:16:18;;;;;;;461.05;272.90;;;;;;;;;;5070821;28;20039;-74
2022/10/04 06:18:54;;;;;;;467.25;274.45;;;;;;;;;;5070090;28;20103;-76
2022/10/04 06:21:24;;;;;;;462.52;271.52;;;;;;;;;;5069359;28;20063;-76
2022/10/04 06:24:02;;;;;;;472.42;280.05;;;;;;;;;;5083278;28;20081;-76
2022/10/04 06:26:46;;;;;;;467.90;275.20;;;;;;;;;;5089204;28;20028;-77
2022/10/04 06:29:23;;;;;;;459.48;271.02;;;;;;;;;;5084895;28;20016;-77
2022/10/04 06:32:01;;;;;;;465.73;278.33;;;;;;;;;;5090261;28;20024;-77
2022/10/04 06:34:37;;;;;;;463.10;273.33;;;;;;;;;;5089074;28;20024;-78
2022/10/04 06:37:14;;;;;;;465.90;274.70;;;;;;;;;;5091433;28;20020;-77
2022/10/04 06:39:59;;;;;;;470.88;276.90;;;;;;;;;;5091159;28;20031;-79
2022/10/04 06:42:41;;;;;;;483.63;285.05;;;;;;;;;;5091153;28;20067;-77
2022/10/04 06:48:14;;;;;;;486.25;277.52;;;;;;;;;;5098643;27;20405;-75
2022/10/04 06:50:43;;;;;;;475.70;275.15;;;;;;;;;;5102145;28;20472;-78
2022/10/04 06:53:15;;;;;;;459.48;270.02;;;;;;;;;;5090358;28;20455;-78
2022/10/04 06:55:54;;;;;;;460.98;273.83;;;;;;;;;;5088578;28;20126;-78
2022/10/04 06:59:52;;;;;;;495.55;279.30;;;;;;;;;;5129485;27;20320;-77
2022/10/04 07:04:38;;;;;;;520.30;285.30;;;;;;;;;;5066425;28;20419;-76
2022/10/04 07:07:33;;;;;;;514.85;279.98;;;;;;;;;;5066802;28;20032;-79
2022/10/04 07:10:02;;;;;;;504.73;282.88;;;;;;;;;;5068051;28;20104;-74
2022/10/04 07:12:31;;;;;;;501.75;281.50;;;;;;;;;;5066946;28;20381;-76
2022/10/04 07:15:00;;;;;;;498.65;285.80;;;;;;;;;;5066736;28;20028;-77
2022/10/04 07:17:29;;;;;;;484.05;276.30;;;;;;;;;;5063688;28;20033;-76
2022/10/04 07:23:50;;;;;;;489.35;281.70;;;;;;;;;;5108039;27;20395;-77
2022/10/04 07:26:23;;;;;;;508.55;282.02;;;;;;;;;;5105435;28;20016;-77
2022/10/04 07:31:02;;;;;;;525.97;287.42;;;;;;;;;;5103660;27;20477;-78
2022/10/04 07:33:31;;;;;;;533.83;295.65;;;;;;;;;;5086344;28;20032;-79
2022/10/04 07:39:04;;;;;;;511.65;281.30;;;;;;;;;;5107295;27;20113;-75
2022/10/04 07:42:59;;;;;;;531.30;295.90;;;;;;;;;;5099894;27;20392;-74
2022/10/04 07:45:31;;;;;;;543.63;300.27;;;;;;;;;;5106744;28;20444;-73
2022/10/04 07:48:12;;;;;;;536.97;296.63;;;;;;;;;;5104396;28;20027;-73
2022/10/04 07:51:08;;;;;;;535.38;294.40;;;;;;;;;;5069874;28;20442;-77
2022/10/04 07:56:00;;;;;;;530.15;297.63;;;;;;;;;;5107949;27;20408;-73
2022/10/04 07:58:45;;;;;;;531.55;293.88;;;;;;;;;;5108284;28;20102;-74
2022/10/04 08:01:17;;;;;;;536.55;300.00;;;;;;;;;;5108637;28;20024;-76
2022/10/04 08:03:46;;;;;;;533.70;291.77;;;;;;;;;;5090448;28;20020;-75
2022/10/04 08:06:12;;;;;;;505.55;278.63;;;;;;;;;;5088341;28;20024;-76
2022/10/04 08:13:24;;;;;;;530.92;289.25;;;;;;;;;;5107892;27;20392;-78
2022/10/04 08:15:50;;;;;;;;;;;;;;;;;;5110495;28;20360;-74
2022/10/04 08:20:22;;;;;;;539.63;295.42;;;;;;;;;;5108571;27;20313;-72
2022/10/04 08:31:33;;;;;;;556.92;302.02;;;;;;;;;;5052995;28;20119;-75
2022/10/04 08:33:59;;;;;;;554.15;300.92;;;;;;;;;;5045955;28;20035;-73
2022/10/04 08:36:26;;;;;;;552.25;293.90;;;;;;;;;;5047482;28;20021;-73
2022/10/04 08:38:56;;;;;;;570.42;305.48;;;;;;;;;;5047870;28;20024;-73
2022/10/04 08:41:41;;;;;;;581.67;308.42;;;;;;;;;;5045504;28;20052;-76
2022/10/04 08:44:09;;;;;;;580.15;303.63;;;;;;;;;;5044022;28;20057;-78
2022/10/04 08:48:37;;;;;;;539.50;298.95;;;;;;;;;;5171523;27;20314;-81
2022/10/04 08:51:22;;;;;;;510.70;295.92;;;;;;;;;;5148665;27;20034;-77
2022/10/04 08:57:14;;;;;;;568.20;310.33;;;;;;;;;;5097293;27;20497;-78
2022/10/04 08:59:49;;;;;;;462.10;281.50;;;;;;;;;;5084765;28;20032;-77
2022/10/04 09:05:23;;;;;;;483.38;283.38;;;;;;;;;;5078712;27;20434;-77
2022/10/04 09:08:18;;;;;;;503.73;299.90;;;;;;;;;;5036439;28;20520;-76
2022/10/04 09:10:47;;;;;;;514.38;294.95;;;;;;;;;;5035390;28;20481;-79
2022/10/04 09:13:33;;;;;;;543.17;300.00;;;;;;;;;;5035264;28;20037;-77
2022/10/04 09:20:01;;;;;;;511.00;299.90;;;;;;;;;;5058135;28;20438;-76
2022/10/04 09:24:24;;;;;;;512.78;295.30;;;;;;;;;;5103830;27;20409;-75
2022/10/04 09:27:11;;;;;;;512.17;299.80;;;;;;;;;;5086354;28;20013;-76
2022/10/04 09:29:40;;;;;;;501.30;293.30;;;;;;;;;;5085849;28;20020;-77
2022/10/04 09:34:21;;;;;;;508.98;296.10;;;;;;;;;;5167448;27;20310;-77
2022/10/04 09:37:25;;;;;;;466.02;279.90;;;;;;;;;;5101051;27;20326;-76
2022/10/04 09:44:11;;;;;;;;;;;;;;;;;;5103519;27;20916;-78
2022/10/04 09:46:37;;;;;;;;;;;;;;;;;;5102371;28;20019;-78
2022/10/04 09:49:03;;;;;;;;;;;;;;;;;;5104431;28;20006;-78
2022/10/04 09:51:29;;;;;;;;;;;;;;;;;;5105159;28;19904;-76
2022/10/04 09:55:13;;;;;;;595.88;312.17;;;;;;;;;;5106408;27;21140;-76
2022/10/04 09:58:50;;;;;;;;;;;;;;;;;;5105436;27;20424;-77
2022/10/04 10:03:46;;;;;;;665.78;446.13;;;;;;;;;;5083689;27;20429;-77
2022/10/04 10:08:00;;;;;;;669.15;416.23;;;;;;;;;;5083867;27;20356;-75
2022/10/04 10:14:05;;;;;;;;;;;;;;;;;;5108077;27;19916;-78
2022/10/04 10:16:31;;;;;;;;;;;;;;;;;;5107552;28;19934;-73
2022/10/04 10:18:58;;;;;;;;;;;;;;;;;;5108935;28;19908;-76
2022/10/04 10:21:24;;;;;;;;;;;;;;;;;;5101898;28;20358;-75
2022/10/04 10:23:50;;;;;;;;;;;;;;;;;;5106714;28;19961;-75
2022/10/04 10:27:23;;;;;;;;;;;;;;;;;;5089153;27;19916;-74
2022/10/04 10:29:49;;;;;;;;;;;;;;;;;;5088025;28;19966;-77
2022/10/04 10:33:12;;;;;;;;;;;;;;;;;;5110759;27;19912;-77
2022/10/04 10:35:38;;;;;;;;;;;;;;;;;;5106975;28;19919;-74
2022/10/04 10:38:05;;;;;;;;;;;;;;;;;;5108170;28;20011;-73
2022/10/04 10:40:30;;;;;;;;;;;;;;;;;;5107400;28;19990;-73
2022/10/04 10:44:55;;;;;;;;;;;;;;;;;;5108433;27;19938;-71
2022/10/04 10:48:16;;;;;;;;;;;;;;;;;;5150286;27;19972;-70
2022/10/04 10:51:02;;;;;;;;;;;;;;;;;;5088886;27;19916;-70
2022/10/04 10:53:28;;;;;;;;;;;;;;;;;;5086056;28;19940;-73
2022/10/04 10:55:55;;;;;;;;;;;;;;;;;;5085737;28;19999;-73
2022/10/04 10:58:21;;;;;;;;;;;;;;;;;;5087664;28;19958;-74
2022/10/04 11:00:49;;;;;;;;;;;;;;;;;;5088113;28;20349;-74
2022/10/04 11:03:16;;;;;;;;;;;;;;;;;;5088713;28;20410;-74
2022/10/04 11:05:42;;;;;;;;;;;;;;;;;;5088547;28;19961;-72
2022/10/04 11:08:09;;;;;;;;;;;;;;;;;;5085327;28;20006;-71
2022/10/04 11:10:35;;;;;;;;;;;;;;;;;;5086346;28;19920;-72
2022/10/04 11:13:01;;;;;;;;;;;;;;;;;;5087898;28;19915;-73
2022/10/04 11:15:27;;;;;;;;;;;;;;;;;;5086688;28;19909;-74
2022/10/04 11:17:55;;;;;;;;;;;;;;;;;;5088079;28;19969;-73
2022/10/04 11:20:23;;;;;;;;;;;;;;;;;;5087041;28;20053;-77
2022/10/04 11:22:49;;;;;;;;;;;;;;;;;;5086546;28;19916;-73
2022/10/04 11:25:15;;;;;;;;;;;;;;;;;;5087084;28;20531;-74
2022/10/04 11:27:42;;;;;;;;;;;;;;;;;;5086420;28;20390;-75
2022/10/04 11:31:31;;;;;;;;;;;;;;;;;;5108548;27;19938;-74
2022/10/04 11:33:57;;;;;;;;;;;;;;;;;;5106650;28;19912;-73
2022/10/04 11:36:23;;;;;;;;;;;;;;;;;;5101573;28;19938;-73
2022/10/04 11:38:49;;;;;;;;;;;;;;;;;;5088611;28;20416;-73
2022/10/04 11:44:59;;;;;;;;;;;;;;;;;;5111071;27;19916;-72
2022/10/04 11:47:25;;;;;;;;;;;;;;;;;;5110554;28;19912;-71
2022/10/04 11:50:02;;;;;;;567.40;337.48;;;;;;;;;;5108146;28;20713;-72
2022/10/04 11:52:39;;;;;;;543.92;278.65;;;;;;;;;;5109103;28;20053;-73
2022/10/04 11:56:42;;;;;;;;;;;;;;;;;;5106303;27;19926;-73
2022/10/04 11:59:08;;;;;;;;;;;;;;;;;;5108648;28;20550;-74
2022/10/04 12:01:37;;;;;;;;;;;;;;;;;;5107829;28;19939;-72
2022/10/04 12:04:03;;;;;;;;;;;;;;;;;;5108846;28;19915;-73
2022/10/04 12:06:34;;;;;;;;;;;;;;;;;;5108380;28;19908;-74
2022/10/04 12:09:04;;;;;;;;;;;;;;;;;;5108805;28;19912;-76
2022/10/04 12:12:35;;;;;;;;;;;;;;;;;;5109301;28;20447;-74
2022/10/04 12:14:25;;;;;;;483.75;270.00;;;;;;;;;;5109328;28;20863;-74
2022/10/04 12:16:51;;;;;;;;;;;;;;;;;;5108228;28;20135;-74
2022/10/04 12:19:18;;;;;;;;;;;;;;;;;;5109229;28;20003;-75
2022/10/04 12:21:44;;;;;;;;;;;;;;;;;;5107345;28;20267;-75
2022/10/04 12:24:12;;;;;;;;;;;;;;;;;;5110742;28;19911;-76
2022/10/04 12:26:38;;;;;;;;;;;;;;;;;;5102378;28;19905;-77
2022/10/04 12:29:04;;;;;;;;;;;;;;;;;;5098514;28;19998;-75
2022/10/04 12:31:31;;;;;;;;;;;;;;;;;;5089005;28;19970;-75
2022/10/04 12:33:56;;;;;;;;;;;;;;;;;;5090723;28;19911;-74
2022/10/04 12:36:23;;;;;;;;;;;;;;;;;;5089745;28;20281;-77
2022/10/04 12:38:49;;;;;;;;;;;;;;;;;;5086781;28;19912;-76
2022/10/04 12:41:15;;;;;;;;;;;;;;;;;;5087449;28;19904;-74
2022/10/04 12:43:41;;;;;;;;;;;;;;;;;;5092229;28;19915;-74
2022/10/04 12:46:07;;;;;;;;;;;;;;;;;;5089960;28;19923;-80
2022/10/04 12:48:33;;;;;;;;;;;;;;;;;;5085491;28;19904;-76
2022/10/04 12:50:59;;;;;;;;;;;;;;;;;;5086848;28;19931;-76
2022/10/04 12:53:30;;;;;;;;;;;;;;;;;;5085830;28;19966;-76
2022/10/04 12:55:56;;;;;;;;;;;;;;;;;;5084959;28;19955;-75
2022/10/04 12:58:46;;;;;;;598.10;365.95;;;;;;;;;;5082263;28;20410;-77
2022/10/04 13:01:28;;;;;;;540.35;284.80;;;;;;;;;;5071470;28;20032;-76
2022/10/04 13:04:01;;;;;;;496.13;277.63;;;;;;;;;;5087270;28;20060;-77
2022/10/04 13:06:34;;;;;;;387.40;224.40;;;;;;;;;;5081433;28;20392;-77
2022/10/04 13:09:54;;;;;;;581.38;300.08;;;;;;;;;;5088418;27;20341;-77
2022/10/04 13:12:46;;;;;;;544.28;281.52;;;;;;;;;;5089183;28;20038;-76
2022/10/04 13:15:12;;;;;;;412.30;231.30;;;;;;;;;;5080021;28;20104;-76
2022/10/04 13:17:38;;;;;;;;;;;;;;;;;;5089151;28;20488;-76
2022/10/04 13:20:13;;;;;;;524.10;284.20;;;;;;;;;;5087125;28;20405;-76
2022/10/04 13:22:39;;;;;;;;;;;;;;;;;;5089111;28;20028;-76
2022/10/04 13:25:05;;;;;;;;;;;;;;;;;;5089177;28;19911;-76
2022/10/04 13:27:49;;;;;;;513.95;288.55;;;;;;;;;;5086036;28;20387;-76
2022/10/04 13:30:15;;;;;;;;;;;;;;;;;;5091165;28;20385;-77
2022/10/04 13:32:41;;;;;;;;;;;;;;;;;;5091120;28;19905;-77
2022/10/04 13:35:07;;;;;;;;;;;;;;;;;;5090645;28;20349;-76
2022/10/04 13:37:34;;;;;;;;;;;;;;;;;;5091037;28;20418;-77
2022/10/04 13:40:20;;;;;;;496.55;287.77;;;;;;;;;;5088816;28;20391;-75
2022/10/04 13:42:47;;;;;;;;;;;;;;;;;;5089657;28;20445;-76
2022/10/04 13:45:33;;;;;;;485.83;278.15;;;;;;;;;;5089834;28;20387;-76
2022/10/04 13:47:59;;;;;;;;;;;;;;;;;;5089044;28;20039;-76
2022/10/04 13:50:54;;;;;;;441.73;260.77;;;;;;;;;;5089640;28;20374;-76
2022/10/04 13:58:55;;;;;;;;;;;;;;;;;;5090660;28;20491;-76
2022/10/04 14:01:31;;;;;;;478.70;285.67;;;;;;;;;;5088167;28;20386;-76
2022/10/04 14:03:57;;;;;;;;;;;;;;;;;;5090725;28;20032;-76
2022/10/04 14:06:23;;;;;;;496.40;288.40;;;;;;;;;;5089089;28;20395;-76
2022/10/04 14:08:49;;;;;;;;;;;;;;;;;;5101993;28;20116;-76
2022/10/04 14:11:18;;;;;;;;;;;;;;;;;;5110687;28;19904;-76
2022/10/04 14:13:44;;;;;;;;;;;;;;;;;;5110947;28;19908;-76
2022/10/04 14:16:11;;;;;;;;;;;;;;;;;;5110184;28;19962;-76
2022/10/04 14:18:37;;;;;;;;;;;;;;;;;;5110572;28;19955;-76
2022/10/04 14:21:03;;;;;;;;;;;;;;;;;;5097557;28;19912;-75
2022/10/04 14:23:30;;;;;;;;;;;;;;;;;;5096412;28;19907;-76
2022/10/04 14:25:59;;;;;;;495.40;284.92;;;;;;;;;;5095017;28;20464;-76
2022/10/04 14:28:42;;;;;;;;;;;;;;;;;;5112347;27;20442;-76
2022/10/04 14:31:09;;;;;;;;;;;;;;;;;;5111372;28;19961;-76
2022/10/04 14:33:35;;;;;;;;;;;;;;;;;;5110304;28;19947;-76
2022/10/04 14:36:01;;;;;;;;;;;;;;;;;;5110136;28;19904;-76
2022/10/04 14:38:27;;;;;;;;;;;;;;;;;;5111070;28;19957;-76
2022/10/04 14:40:53;;;;;;;;;;;;;;;;;;5111463;28;19911;-76
2022/10/04 14:43:19;;;;;;;;;;;;;;;;;;5109689;28;19904;-76
2022/10/04 14:45:45;;;;;;;;;;;;;;;;;;5111707;28;19957;-76
2022/10/04 14:48:12;;;;;;;;;;;;;;;;;;5111353;28;19916;-76
2022/10/04 14:50:40;;;;;;;;;;;;;;;;;;5111002;28;19904;-76
2022/10/04 14:53:06;;;;;;;;;;;;;;;;;;5111386;28;19918;-76
2022/10/04 14:55:32;;;;;;;;;;;;;;;;;;5111325;28;19911;-76
2022/10/04 14:57:57;;;;;;;;;;;;;;;;;;5110938;28;20049;-76
2022/10/04 15:00:24;;;;;;;;;;;;;;;;;;5111328;28;19908;-75
2022/10/04 15:02:50;;;;;;;;;;;;;;;;;;5111120;28;20368;-75
2022/10/04 15:05:16;;;;;;;;;;;;;;;;;;5110874;28;19947;-76
2022/10/04 15:07:43;;;;;;;;;;;;;;;;;;5111081;28;19916;-75
2022/10/04 15:10:09;;;;;;;;;;;;;;;;;;5111622;28;20414;-75
2022/10/04 15:12:35;;;;;;;;;;;;;;;;;;5109361;28;20016;-77
2022/10/04 15:15:01;;;;;;;;;;;;;;;;;;5109679;28;19912;-76
2022/10/04 15:17:27;;;;;;;;;;;;;;;;;;5110876;28;19910;-77
2022/10/04 15:19:53;;;;;;;;;;;;;;;;;;5110477;28;19904;-77
2022/10/04 15:22:19;;;;;;;;;;;;;;;;;;5110772;28;19957;-77
2022/10/04 15:24:45;;;;;;;;;;;;;;;;;;5110741;28;20372;-77
2022/10/04 15:27:11;;;;;;;;;;;;;;;;;;5109883;28;20482;-77
2022/10/04 15:29:37;;;;;;;;;;;;;;;;;;5109305;28;19904;-77
2022/10/04 15:32:04;;;;;;;;;;;;;;;;;;5109247;28;20446;-78
2022/10/04 15:34:41;;;;;;;;;;;;;;;;;;5111864;27;20285;-77
2022/10/04 15:37:08;;;;;;;;;;;;;;;;;;5112140;28;19912;-77
2022/10/04 15:39:34;;;;;;;;;;;;;;;;;;5111471;28;19953;-76
2022/10/04 15:42:00;;;;;;;;;;;;;;;;;;5113112;28;20272;-75
2022/10/04 15:44:26;;;;;;;;;;;;;;;;;;5114399;28;19949;-76
2022/10/04 15:46:55;;;;;;;;;;;;;;;;;;5111192;28;20000;-77
2022/10/04 15:49:22;;;;;;;;;;;;;;;;;;5111740;28;19999;-77
2022/10/04 15:51:48;;;;;;;;;;;;;;;;;;5112026;28;20360;-78
2022/10/04 15:54:14;;;;;;;;;;;;;;;;;;5110866;28;19923;-77
2022/10/04 15:57:51;;;;;;;;;;;;;;;;;;5112537;27;20360;-78
2022/10/04 16:01:48;;;;;;;;;;;;;;;;;;5111761;27;19923;-77
2022/10/04 16:06:34;;;;;;;659.85;411.45;;;;;;;;;;5111259;27;20392;-76
2022/10/04 16:09:00;;;;;;;654.53;407.48;;;;;;;;;;5109612;28;20024;-77
2022/10/04 16:11:29;;;;;;;589.08;366.10;;;;;;;;;;5111269;28;20028;-79
2022/10/04 16:14:15;;;;;;;624.63;363.73;;;;;;;;;;5109856;28;20027;-76
2022/10/04 16:18:35;;;;;;;589.70;372.58;;;;;;;;;;5131721;27;20315;-78
2022/10/04 16:22:18;;;;;;;673.75;303.67;;;;;;;;;;5173323;27;20319;-79
2022/10/04 16:24:46;;;;;;;628.28;297.63;;;;;;;;;;5133954;27;20054;-78
2022/10/04 16:29:17;;;;;;;647.42;304.08;;;;;;;;;;5111443;27;20396;-77
2022/10/04 16:32:02;;;;;;;651.35;307.35;;;;;;;;;;5111426;28;20380;-77
2022/10/04 16:36:19;;;;;;;;;;;;;;;;;;5111456;27;20572;-79
2022/10/04 16:43:30;;;;;;;556.90;325.13;;;;;;;;;;5111458;27;20401;-76
2022/10/04 16:46:08;;;;;;;680.60;309.60;;;;;;;;;;5110031;28;20031;-78
2022/10/04 16:49:23;;;;;;;612.45;294.73;;;;;;;;;;5111064;27;20450;-78